createdAt,value
2018-05-15T00:01:45.947Z,7.27
2018-05-15T00:03:50.991Z,8.20
2018-05-15T00:05:55.439Z,8.47
2018-05-15T00:08:00.717Z,7.60
2018-05-15T00:10:04.779Z,9.60
2018-05-15T00:12:08.742Z,9.20
2018-05-15T00:14:13.142Z,8.60
2018-05-15T00:16:17.576Z,9.13
2018-05-15T00:18:22.318Z,8.80
2018-05-15T00:20:26.755Z,9.20
2018-05-15T00:22:31.959Z,8.07
2018-05-15T00:24:37.111Z,8.97
2018-05-15T00:26:41.797Z,8.80
2018-05-15T00:28:46.212Z,8.30
2018-05-15T00:30:51.076Z,8.37
2018-05-15T00:32:55.510Z,8.17
2018-05-15T00:35:00.711Z,8.87
2018-05-15T00:37:05.172Z,9.80
2018-05-15T00:39:09.600Z,8.60
2018-05-15T00:41:14.071Z,8.50
2018-05-15T00:43:18.502Z,8.83
2018-05-15T00:45:23.731Z,8.50
2018-05-15T00:47:28.212Z,9.00
2018-05-15T00:49:32.621Z,8.30
2018-05-15T00:51:37.079Z,8.97
2018-05-15T00:53:41.508Z,9.00
2018-05-15T00:55:45.026Z,8.80
2018-05-15T00:57:49.492Z,8.30
2018-05-15T00:59:53.930Z,7.90
2018-05-15T01:01:58.845Z,8.03
2018-05-15T01:04:03.282Z,8.60
2018-05-15T01:06:08.678Z,9.30
2018-05-15T01:08:13.105Z,9.30
2018-05-15T01:10:17.660Z,8.00
2018-05-15T01:12:21.803Z,8.63
2018-05-15T01:14:26.242Z,9.30
2018-05-15T01:16:30.756Z,9.10
2018-05-15T01:18:35.150Z,8.27
2018-05-15T01:20:39.584Z,9.07
2018-05-15T01:22:44.039Z,9.50
2018-05-15T01:24:48.467Z,9.40
2018-05-15T01:26:53.761Z,8.80
2018-05-15T01:28:58.175Z,9.10
2018-05-15T01:31:02.598Z,9.87
2018-05-15T01:33:07.055Z,8.43
2018-05-15T01:35:11.226Z,9.83
2018-05-15T01:37:15.432Z,10.17
2018-05-15T01:39:19.579Z,9.10
2018-05-15T01:41:24.003Z,9.73
2018-05-15T01:43:28.272Z,9.30
2018-05-15T01:45:32.673Z,9.70
2018-05-15T01:47:37.118Z,9.00
2018-05-15T01:49:41.567Z,9.60
2018-05-15T01:51:46.774Z,9.00
2018-05-15T01:53:51.224Z,9.20
2018-05-15T01:55:56.518Z,9.80
2018-05-15T01:58:00.934Z,10.53
2018-05-15T02:00:05.139Z,9.70
2018-05-15T02:02:09.550Z,10.90
2018-05-15T02:04:13.978Z,9.27
2018-05-15T02:06:18.492Z,10.00
2018-05-15T02:08:22.660Z,9.13
2018-05-15T02:10:27.016Z,9.50
2018-05-15T02:12:31.059Z,10.30
2018-05-15T02:14:35.490Z,11.40
2018-05-15T02:16:40.693Z,10.27
2018-05-15T02:18:45.129Z,10.30
2018-05-15T02:20:49.310Z,11.00
2018-05-15T02:22:54.027Z,10.80
2018-05-15T02:24:58.552Z,11.03
2018-05-15T02:27:03.064Z,11.53
2018-05-15T02:29:07.513Z,10.57
2018-05-15T02:31:11.947Z,9.77
2018-05-15T02:33:17.192Z,16.23
2018-05-15T02:35:22.486Z,10.10
2018-05-15T02:37:28.650Z,11.10
2018-05-15T02:39:33.149Z,11.20
2018-05-15T02:41:37.550Z,9.70
2018-05-15T02:43:41.999Z,11.10
2018-05-15T02:45:46.442Z,9.73
2018-05-15T02:47:51.102Z,9.90
2018-05-15T02:49:55.538Z,10.43
2018-05-15T02:51:59.983Z,10.10
2018-05-15T02:54:04.439Z,14.27
2018-05-15T02:56:08.880Z,12.23
2018-05-15T02:58:13.519Z,11.50
2018-05-15T03:00:17.956Z,11.27
2018-05-15T03:02:22.394Z,11.97
2018-05-15T03:04:27.618Z,11.83
2018-05-15T03:06:32.096Z,11.10
2018-05-15T03:08:36.494Z,13.33
2018-05-15T03:10:40.966Z,13.90
2018-05-15T03:12:45.410Z,13.17
2018-05-15T03:14:50.812Z,11.00
2018-05-15T03:16:55.250Z,11.63
2018-05-15T03:19:00.449Z,13.40
2018-05-15T03:21:05.115Z,14.70
2018-05-15T03:23:10.324Z,13.03
2018-05-15T03:25:14.758Z,11.00
2018-05-15T03:27:20.185Z,12.23
2018-05-15T03:29:24.623Z,11.83
2018-05-15T03:31:30.024Z,13.77
2018-05-15T03:33:34.646Z,11.47
2018-05-15T03:35:39.085Z,11.90
2018-05-15T03:37:44.307Z,12.40
2018-05-15T03:39:48.750Z,12.10
2018-05-15T03:41:53.945Z,12.07
2018-05-15T03:43:58.393Z,13.87
2018-05-15T03:46:03.260Z,12.63
2018-05-15T03:48:07.934Z,13.07
2018-05-15T03:50:12.045Z,12.90
2018-05-15T03:52:16.204Z,12.57
2018-05-15T03:54:20.641Z,13.40
2018-05-15T03:56:25.107Z,12.50
2018-05-15T03:58:30.310Z,13.63
2018-05-15T04:03:22.769Z,12.93
2018-05-15T04:05:38.982Z,13.07
2018-05-15T04:07:54.315Z,13.57
2018-05-15T04:09:58.245Z,16.60
2018-05-15T04:12:03.043Z,20.30
2018-05-15T04:14:07.486Z,17.23
2018-05-15T04:16:12.125Z,19.47
2018-05-15T04:18:17.322Z,16.77
2018-05-15T04:20:21.767Z,16.00
2018-05-15T04:22:26.194Z,15.77
2018-05-15T04:24:31.172Z,16.30
2018-05-15T04:26:35.602Z,15.53
2018-05-15T04:28:40.038Z,15.60
2018-05-15T04:30:44.486Z,17.40
2018-05-15T04:32:48.928Z,16.87
2018-05-15T04:34:53.370Z,18.80
2018-05-15T04:36:57.810Z,18.23
2018-05-15T04:39:02.242Z,14.37
2018-05-15T04:41:06.423Z,14.37
2018-05-15T04:43:10.866Z,15.23
2018-05-15T04:45:16.091Z,15.30
2018-05-15T04:47:20.555Z,15.33
2018-05-15T04:49:25.010Z,15.40
2018-05-15T04:51:29.630Z,15.17
2018-05-15T04:53:34.079Z,15.80
2018-05-15T04:55:39.361Z,14.57
2018-05-15T04:57:43.922Z,16.33
2018-05-15T04:59:48.379Z,16.00
2018-05-15T05:01:52.910Z,16.10
2018-05-15T05:03:57.487Z,15.30
2018-05-15T05:06:01.595Z,15.30
2018-05-15T05:08:06.792Z,13.90
2018-05-15T05:10:11.223Z,16.30
2018-05-15T05:12:16.158Z,13.97
2018-05-15T05:14:20.818Z,16.10
2018-05-15T05:16:26.162Z,14.67
2018-05-15T05:18:30.592Z,15.20
2018-05-15T05:20:35.028Z,14.90
2018-05-15T05:22:39.183Z,14.83
2018-05-15T05:24:44.385Z,15.03
2018-05-15T05:26:49.047Z,16.13
2018-05-15T05:28:54.250Z,15.03
2018-05-15T05:31:00.197Z,29.90
2018-05-15T05:33:04.325Z,15.10
2018-05-15T05:35:08.192Z,15.33
2018-05-15T05:37:12.249Z,15.40
2018-05-15T05:39:17.498Z,19.20
2018-05-15T05:41:21.933Z,13.50
2018-05-15T05:43:26.370Z,14.70
2018-05-15T05:45:30.814Z,15.43
2018-05-15T05:47:35.251Z,13.57
2018-05-15T05:49:40.450Z,13.40
2018-05-15T05:51:44.888Z,13.13
2018-05-15T05:53:49.322Z,13.57
2018-05-15T05:55:54.578Z,13.90
2018-05-15T05:57:59.163Z,12.90
2018-05-15T06:00:03.268Z,11.83
2018-05-15T06:02:07.274Z,12.00
2018-05-15T06:04:11.702Z,12.40
2018-05-15T06:06:16.907Z,12.07
2018-05-15T06:08:21.446Z,12.10
2018-05-15T06:10:25.895Z,11.70
2018-05-15T06:12:31.074Z,11.97
2018-05-15T06:14:35.523Z,11.13
2018-05-15T06:16:39.962Z,10.93
2018-05-15T06:18:44.397Z,11.07
2018-05-15T06:20:48.956Z,12.77
2018-05-15T06:22:53.486Z,11.50
2018-05-15T06:24:57.913Z,11.77
2018-05-15T06:27:02.805Z,11.67
2018-05-15T06:29:07.460Z,16.17
2018-05-15T06:31:11.890Z,11.13
2018-05-15T06:33:16.424Z,12.20
2018-05-15T06:35:20.862Z,12.87
2018-05-15T06:37:25.303Z,10.73
2018-05-15T06:39:29.734Z,11.30
2018-05-15T06:41:34.670Z,10.40
2018-05-15T06:43:38.962Z,9.50
2018-05-15T06:45:43.410Z,9.33
2018-05-15T06:47:47.855Z,9.97
2018-05-15T06:49:52.286Z,10.43
2018-05-15T06:51:56.717Z,10.67
2018-05-15T06:54:01.158Z,10.77
2018-05-15T06:56:07.118Z,9.37
2018-05-15T06:58:11.560Z,10.47
2018-05-15T07:00:16.782Z,10.00
2018-05-15T07:02:21.982Z,10.53
2018-05-15T07:04:26.421Z,9.07
2018-05-15T07:06:31.125Z,8.13
2018-05-15T07:08:35.554Z,9.60
2018-05-15T07:10:39.986Z,8.97
2018-05-15T07:12:44.642Z,9.40
2018-05-15T07:14:49.470Z,8.90
2018-05-15T07:16:53.901Z,8.37
2018-05-15T07:18:58.022Z,8.87
2018-05-15T07:21:02.465Z,9.80
2018-05-15T07:23:08.399Z,9.90
2018-05-15T07:25:12.506Z,8.47
2018-05-15T07:27:16.975Z,8.73
2018-05-15T07:29:22.366Z,7.00
2018-05-15T07:31:26.818Z,7.20
2018-05-15T07:33:32.027Z,6.77
2018-05-15T07:35:36.458Z,6.70
2018-05-15T07:37:41.081Z,6.03
2018-05-15T07:39:46.281Z,6.03
2018-05-15T07:41:50.734Z,7.90
2018-05-15T07:43:55.178Z,6.57
2018-05-15T07:45:59.610Z,6.50
2018-05-15T07:48:04.043Z,6.30
2018-05-15T07:50:08.197Z,6.63
2018-05-15T07:52:14.152Z,6.47
2018-05-15T07:54:18.788Z,5.80
2018-05-15T07:56:23.249Z,5.93
2018-05-15T07:58:28.406Z,6.13
2018-05-15T08:00:32.838Z,6.40
2018-05-15T08:02:38.070Z,6.67
2018-05-15T08:04:44.006Z,6.17
2018-05-15T08:06:48.471Z,5.93
2018-05-15T08:08:52.951Z,6.47
2018-05-15T08:10:57.878Z,5.93
2018-05-15T08:13:02.307Z,5.93
2018-05-15T08:15:06.917Z,5.43
2018-05-15T08:17:11.347Z,7.50
2018-05-15T08:19:16.539Z,6.23
2018-05-15T08:21:21.190Z,6.90
2018-05-15T08:23:25.823Z,5.43
2018-05-15T08:25:30.282Z,5.80
2018-05-15T08:27:34.722Z,6.80
2018-05-15T08:29:39.170Z,5.77
2018-05-15T08:31:43.798Z,4.93
2018-05-15T08:33:49.014Z,4.80
2018-05-15T08:35:53.440Z,5.97
2018-05-15T08:37:59.378Z,5.57
2018-05-15T08:40:03.522Z,5.87
2018-05-15T08:42:08.126Z,4.60
2018-05-15T08:44:12.758Z,4.57
2018-05-15T08:46:17.959Z,5.43
2018-05-15T08:48:22.391Z,6.13
2018-05-15T08:50:27.022Z,4.33
2018-05-15T08:52:32.243Z,3.53
2018-05-15T08:54:36.674Z,4.13
2018-05-15T08:56:41.870Z,3.90
2018-05-15T08:58:46.453Z,4.40
2018-05-15T09:00:51.674Z,4.30
2018-05-15T09:02:56.862Z,4.63
2018-05-15T09:05:01.627Z,3.93
2018-05-15T09:07:06.079Z,3.70
2018-05-15T09:09:10.502Z,3.87
2018-05-15T09:11:15.031Z,4.73
2018-05-15T09:13:20.793Z,4.50
2018-05-15T09:15:25.227Z,3.60
2018-05-15T09:17:31.178Z,3.63
2018-05-15T09:19:37.124Z,4.20
2018-05-15T09:21:41.738Z,4.03
2018-05-15T09:23:46.394Z,11.57
2018-05-15T09:25:50.822Z,4.50
2018-05-15T09:27:56.223Z,3.93
2018-05-15T09:30:00.861Z,3.43
2018-05-15T09:32:06.003Z,4.60
2018-05-15T09:34:10.445Z,3.73
2018-05-15T09:36:14.885Z,4.30
2018-05-15T09:38:19.163Z,4.20
2018-05-15T09:40:24.681Z,3.90
2018-05-15T09:42:30.818Z,5.17
2018-05-15T09:44:35.251Z,4.90
2018-05-15T09:46:40.531Z,4.33
2018-05-15T09:48:44.963Z,3.87
2018-05-15T09:50:49.382Z,3.77
2018-05-15T09:52:53.816Z,3.93
2018-05-15T09:54:58.259Z,3.50
2018-05-15T09:57:03.455Z,4.20
2018-05-15T09:59:07.878Z,4.30
2018-05-15T10:01:12.338Z,3.60
2018-05-15T10:03:17.540Z,4.90
2018-05-15T10:05:21.958Z,3.97
2018-05-15T10:07:26.156Z,4.10
2018-05-15T10:09:30.578Z,4.07
2018-05-15T10:11:35.022Z,4.63
2018-05-15T10:13:39.649Z,4.10
2018-05-15T10:15:44.090Z,5.70
2018-05-15T10:17:49.278Z,4.83
2018-05-15T10:19:53.778Z,4.30
2018-05-15T10:21:58.082Z,4.30
2018-05-15T10:24:02.178Z,4.67
2018-05-15T10:26:06.397Z,4.07
2018-05-15T10:28:10.814Z,3.97
2018-05-15T10:30:14.918Z,4.20
2018-05-15T10:32:19.412Z,4.10
2018-05-15T10:34:23.999Z,3.73
2018-05-15T10:36:28.430Z,3.80
2018-05-15T10:38:33.324Z,4.30
2018-05-15T10:40:37.722Z,3.47
2018-05-15T10:42:42.151Z,3.60
2018-05-15T10:44:46.603Z,3.90
2018-05-15T10:46:51.041Z,4.00
2018-05-15T10:48:56.231Z,3.60
2018-05-15T10:51:00.678Z,3.80
2018-05-15T10:53:05.109Z,3.80
2018-05-15T10:55:10.396Z,4.30
2018-05-15T10:57:14.798Z,5.03
2018-05-15T10:59:19.241Z,3.70
2018-05-15T11:01:23.683Z,6.20
2018-05-15T11:03:28.157Z,4.27
2018-05-15T11:05:32.595Z,4.20
2018-05-15T11:07:37.028Z,5.60
2018-05-15T11:09:42.971Z,4.37
2018-05-15T11:11:48.911Z,3.70
2018-05-15T11:13:53.349Z,4.17
2018-05-15T11:15:59.291Z,3.53
2018-05-15T11:18:15.466Z,4.10
2018-05-15T11:20:30.849Z,4.00
2018-05-15T11:22:46.864Z,4.30
2018-05-15T11:24:53.651Z,4.30
2018-05-15T11:26:58.834Z,4.00
2018-05-15T11:29:02.958Z,4.00
2018-05-15T11:31:07.390Z,4.13
2018-05-15T11:33:12.026Z,3.60
2018-05-15T11:35:17.551Z,3.97
2018-05-15T11:37:21.978Z,4.40
2018-05-15T11:39:26.419Z,6.10
2018-05-15T11:41:31.644Z,4.50
2018-05-15T11:43:36.254Z,5.40
2018-05-15T11:45:41.242Z,5.68
2018-05-15T11:47:45.949Z,4.93
2018-05-15T11:49:51.086Z,11.47
2018-05-15T11:51:55.786Z,6.87
2018-05-15T11:54:00.072Z,6.50
2018-05-15T11:56:05.170Z,32.53
2018-05-15T11:58:11.052Z,13.77
2018-05-15T12:00:16.250Z,29.50
2018-05-15T12:02:22.209Z,7.43
2018-05-15T12:04:26.754Z,6.07
2018-05-15T12:06:31.838Z,6.15
2018-05-15T12:08:36.393Z,6.50
2018-05-15T12:10:40.867Z,3.70
2018-05-15T12:12:45.452Z,3.97
2018-05-15T12:14:49.902Z,4.47
2018-05-15T12:16:54.335Z,4.62
2018-05-15T12:18:59.317Z,4.30
2018-05-15T12:21:04.323Z,3.85
2018-05-15T12:23:10.262Z,3.53
2018-05-15T12:25:14.727Z,3.63
2018-05-15T12:27:19.978Z,4.00
2018-05-15T12:29:25.666Z,3.10
2018-05-15T12:31:30.091Z,3.80
2018-05-15T12:33:35.123Z,3.53
2018-05-15T12:35:40.278Z,3.83
2018-05-15T12:37:45.270Z,3.15
2018-05-15T12:39:51.023Z,3.30
2018-05-15T12:41:57.229Z,3.40
2018-05-15T12:44:02.203Z,3.20
2018-05-15T12:46:07.198Z,3.20
2018-05-15T12:48:12.249Z,3.90
2018-05-15T12:50:16.794Z,3.27
2018-05-15T12:52:21.130Z,2.97
2018-05-15T12:54:26.114Z,3.20
2018-05-15T12:56:31.094Z,3.30
2018-05-15T12:58:36.096Z,3.30
2018-05-15T13:00:40.530Z,4.40
2018-05-15T13:04:56.518Z,2.90
2018-05-15T13:07:02.272Z,3.72
2018-05-15T13:09:06.955Z,3.87
2018-05-15T13:11:11.957Z,3.17
2018-05-15T13:13:16.623Z,3.37
2018-05-15T13:15:22.585Z,2.92
2018-05-15T13:17:28.338Z,2.60
2018-05-15T13:19:34.102Z,2.95
2018-05-15T13:21:39.105Z,3.70
2018-05-15T13:23:45.185Z,3.20
2018-05-15T13:25:50.169Z,3.47
2018-05-15T13:27:54.823Z,3.30
2018-05-15T13:30:00.598Z,3.33
2018-05-15T13:32:05.604Z,3.10
2018-05-15T13:34:10.770Z,3.55
2018-05-15T13:36:15.991Z,3.27
2018-05-15T13:38:20.713Z,2.90
2018-05-15T13:40:25.702Z,3.30
2018-05-15T13:42:30.710Z,3.22
2018-05-15T13:44:35.138Z,2.80
2018-05-15T13:46:40.122Z,3.60
2018-05-15T13:48:44.567Z,3.40
2018-05-15T13:50:49.809Z,2.97
2018-05-15T13:52:54.410Z,2.95
2018-05-15T13:54:59.626Z,3.17
2018-05-15T13:57:04.046Z,2.90
2018-05-15T13:59:09.991Z,2.70
2018-05-15T14:01:14.101Z,3.47
2018-05-15T14:03:18.548Z,3.30
2018-05-15T14:05:23.738Z,3.07
2018-05-15T14:07:29.175Z,3.20
2018-05-15T14:09:34.930Z,3.10
2018-05-15T14:11:40.694Z,2.42
2018-05-15T14:13:45.708Z,2.92
2018-05-15T14:15:51.657Z,2.90
2018-05-15T14:17:57.598Z,3.08
2018-05-15T14:20:03.389Z,3.58
2018-05-15T14:22:08.375Z,3.42
2018-05-15T14:24:13.370Z,3.10
2018-05-15T14:26:18.366Z,3.37
2018-05-15T14:28:23.362Z,2.87
2018-05-15T14:30:29.856Z,3.20
2018-05-15T14:32:35.594Z,3.35
2018-05-15T14:34:41.344Z,3.08
2018-05-15T14:36:46.342Z,3.35
2018-05-15T14:38:51.510Z,3.90
2018-05-15T14:40:56.512Z,3.30
2018-05-15T14:43:12.826Z,3.55
2018-05-15T14:45:16.862Z,3.25
2018-05-15T14:47:21.593Z,3.30
2018-05-15T14:49:26.779Z,3.20
2018-05-15T14:51:31.204Z,3.67
2018-05-15T14:53:37.159Z,3.12
2018-05-15T14:55:41.599Z,3.20
2018-05-15T14:57:46.060Z,3.23
2018-05-15T14:59:51.048Z,3.40
2018-05-15T15:01:55.770Z,3.70
2018-05-15T15:04:00.198Z,3.10
2018-05-15T15:06:05.389Z,3.23
2018-05-15T15:08:11.158Z,3.30
2018-05-15T15:10:15.810Z,3.10
2018-05-15T15:12:20.786Z,3.15
2018-05-15T15:14:25.250Z,3.67
2018-05-15T15:16:30.087Z,3.37
2018-05-15T15:18:35.038Z,3.42
2018-05-15T15:20:40.330Z,3.15
2018-05-15T15:22:45.311Z,3.80
2018-05-15T15:24:49.743Z,3.20
2018-05-15T15:26:54.177Z,3.10
2018-05-15T15:28:59.102Z,3.30
2018-05-15T15:31:04.878Z,4.45
2018-05-15T15:33:09.298Z,4.10
2018-05-15T15:35:14.343Z,3.47
2018-05-15T15:37:19.474Z,3.10
2018-05-15T15:39:24.462Z,3.35
2018-05-15T15:41:29.450Z,3.03
2018-05-15T15:43:33.924Z,3.57
2018-05-15T15:45:38.223Z,3.73
2018-05-15T15:47:42.647Z,3.93
2018-05-15T15:49:47.078Z,3.43
2018-05-15T15:51:51.525Z,4.23
2018-05-15T15:53:56.998Z,3.53
2018-05-15T15:56:01.391Z,3.80
2018-05-15T15:58:05.936Z,3.43
2018-05-15T16:00:10.349Z,4.07
2018-05-15T16:02:14.679Z,3.90
2018-05-15T16:04:19.120Z,4.33
2018-05-15T16:06:23.583Z,3.37
2018-05-15T16:08:28.748Z,3.87
2018-05-15T16:10:33.194Z,3.73
2018-05-15T16:12:38.387Z,3.50
2018-05-15T16:14:42.840Z,3.50
2018-05-15T16:16:47.287Z,3.47
2018-05-15T16:18:52.670Z,3.70
2018-05-15T16:20:57.376Z,3.80
2018-05-15T16:23:02.542Z,3.17
2018-05-15T16:25:08.494Z,3.37
2018-05-15T16:27:12.967Z,2.87
2018-05-15T16:29:17.382Z,3.67
2018-05-15T16:31:21.813Z,3.63
2018-05-15T16:33:26.243Z,3.40
2018-05-15T16:35:30.689Z,5.30
2018-05-15T16:37:35.133Z,3.80
2018-05-15T16:39:39.574Z,4.17
2018-05-15T16:41:44.194Z,3.47
2018-05-15T16:43:48.651Z,3.10
2018-05-15T16:45:53.299Z,4.67
2018-05-15T16:47:57.915Z,3.97
2018-05-15T16:50:03.118Z,4.07
2018-05-15T16:52:07.546Z,4.30
2018-05-15T16:54:12.462Z,4.57
2018-05-15T16:56:17.539Z,9.80
2018-05-15T16:58:21.971Z,3.47
2018-05-15T17:00:26.394Z,3.80
2018-05-15T17:02:30.846Z,3.80
2018-05-15T17:04:35.275Z,4.73
2018-05-15T17:06:39.716Z,4.83
2018-05-15T17:08:44.936Z,7.47
2018-05-15T17:10:49.370Z,3.60
2018-05-15T17:12:54.561Z,3.93
2018-05-15T17:14:58.994Z,4.83
2018-05-15T17:17:03.424Z,4.60
2018-05-15T17:19:08.620Z,4.20
2018-05-15T17:21:13.129Z,4.93
2018-05-15T17:23:17.543Z,4.67
2018-05-15T17:25:22.237Z,3.80
2018-05-15T17:27:26.810Z,3.83
2018-05-15T17:29:31.236Z,3.40
2018-05-15T17:31:37.170Z,6.93
2018-05-15T17:33:41.894Z,4.33
2018-05-15T17:35:46.323Z,3.93
2018-05-15T17:37:50.741Z,4.40
2018-05-15T17:39:55.663Z,5.07
2018-05-15T17:42:00.099Z,4.53
2018-05-15T17:44:04.397Z,4.57
2018-05-15T17:46:10.346Z,4.63
2018-05-15T17:48:14.804Z,5.23
2018-05-15T17:50:19.997Z,4.20
2018-05-15T17:52:24.445Z,4.33
2018-05-15T17:54:29.846Z,4.13
2018-05-15T17:56:34.353Z,5.03
2018-05-15T17:58:38.774Z,4.90
2018-05-15T18:00:43.201Z,5.70
2018-05-15T18:02:47.648Z,4.40
2018-05-15T18:04:52.268Z,5.30
2018-05-15T18:06:57.477Z,5.30
2018-05-15T18:09:01.913Z,5.00
2018-05-15T18:11:06.330Z,4.30
2018-05-15T18:13:10.426Z,4.63
2018-05-15T18:15:16.436Z,4.10
2018-05-15T18:17:21.015Z,4.47
2018-05-15T18:19:25.448Z,5.10
2018-05-15T18:21:30.082Z,4.30
2018-05-15T18:23:35.502Z,4.60
2018-05-15T18:25:40.706Z,4.30
2018-05-15T18:27:45.131Z,4.47
2018-05-15T18:29:49.750Z,3.77
2018-05-15T18:31:55.686Z,3.80
2018-05-15T18:34:00.321Z,3.90
2018-05-15T18:36:04.787Z,4.13
2018-05-15T18:38:09.229Z,3.47
2018-05-15T18:40:13.661Z,3.80
2018-05-15T18:42:18.305Z,3.50
2018-05-15T18:44:22.474Z,3.50
2018-05-15T18:46:26.910Z,5.03
2018-05-15T18:48:31.362Z,5.97
2018-05-15T18:50:36.561Z,4.67
2018-05-15T18:52:42.219Z,4.13
2018-05-15T18:54:46.659Z,3.73
2018-05-15T18:56:51.855Z,3.20
2018-05-15T18:58:56.284Z,3.90
2018-05-15T19:01:00.908Z,5.00
2018-05-15T19:03:05.860Z,4.30
2018-05-15T19:05:10.305Z,3.60
2018-05-15T19:07:14.746Z,3.80
2018-05-15T19:09:18.962Z,3.90
2018-05-15T19:11:23.400Z,3.67
2018-05-15T19:13:27.824Z,4.77
2018-05-15T19:15:32.552Z,3.87
2018-05-15T19:17:37.752Z,3.90
2018-05-15T19:19:42.206Z,3.80
2018-05-15T19:21:47.590Z,4.10
2018-05-15T19:23:52.024Z,3.90
2018-05-15T19:25:56.463Z,4.07
2018-05-15T19:28:00.961Z,3.90
2018-05-15T19:30:05.396Z,8.00
2018-05-15T19:32:15.315Z,4.47
2018-05-15T19:34:25.909Z,4.70
2018-05-15T19:36:31.313Z,4.57
2018-05-15T19:38:35.882Z,3.20
2018-05-15T19:40:50.150Z,4.10
2018-05-15T19:42:55.341Z,3.97
2018-05-15T19:44:59.899Z,4.50
2018-05-15T19:47:04.859Z,4.20
2018-05-15T19:49:09.292Z,3.93
2018-05-15T19:51:13.811Z,4.53
2018-05-15T19:53:18.239Z,3.70
2018-05-15T19:55:22.684Z,4.90
2018-05-15T19:57:27.898Z,4.53
2018-05-15T19:59:33.115Z,3.40
2018-05-15T20:01:38.243Z,4.07
2018-05-15T20:03:42.711Z,4.00
2018-05-15T20:05:48.069Z,4.57
2018-05-15T20:07:53.465Z,4.80
2018-05-15T20:09:57.897Z,3.43
2018-05-15T20:12:02.478Z,3.87
2018-05-15T20:14:06.892Z,4.00
2018-05-15T20:16:11.445Z,4.30
2018-05-15T20:18:16.038Z,4.33
2018-05-15T20:20:20.680Z,4.27
2018-05-15T20:22:25.179Z,3.70
2018-05-15T20:24:29.590Z,4.43
2018-05-15T20:26:34.414Z,3.77
2018-05-15T20:28:38.811Z,4.00
2018-05-15T20:30:43.234Z,3.80
2018-05-15T20:32:47.903Z,4.73
2018-05-15T20:34:53.242Z,3.83
2018-05-15T20:36:57.757Z,3.63
2018-05-15T20:39:02.207Z,4.07
2018-05-15T20:41:06.455Z,4.20
2018-05-15T20:43:10.846Z,3.87
2018-05-15T20:45:15.306Z,3.90
2018-05-15T20:47:19.734Z,3.90
2018-05-15T20:49:24.270Z,7.87
2018-05-15T20:51:29.488Z,4.30
2018-05-15T20:53:33.946Z,4.07
2018-05-15T20:55:39.111Z,3.70
2018-05-15T20:57:43.578Z,5.50
2018-05-15T20:59:48.761Z,3.60
2018-05-15T21:01:53.196Z,4.27
2018-05-15T21:03:57.314Z,3.60
2018-05-15T21:06:01.746Z,4.30
2018-05-15T21:08:07.727Z,4.10
2018-05-15T21:10:12.177Z,4.33
2018-05-15T21:12:16.610Z,3.83
2018-05-15T21:14:21.030Z,4.60
2018-05-15T21:16:25.732Z,4.57
2018-05-15T21:18:30.885Z,4.20
2018-05-15T21:20:35.313Z,3.73
2018-05-15T21:22:39.754Z,3.90
2018-05-15T21:24:44.947Z,3.40
2018-05-15T21:26:49.384Z,4.10
2018-05-15T21:28:53.830Z,4.30
2018-05-15T21:30:58.266Z,3.63
2018-05-15T21:33:02.695Z,4.30
2018-05-15T21:35:06.515Z,4.20
2018-05-15T21:37:11.141Z,3.90
2018-05-15T21:39:15.644Z,3.80
2018-05-15T21:41:20.059Z,3.90
2018-05-15T21:43:24.477Z,4.03
2018-05-15T21:45:29.001Z,4.00
2018-05-15T21:47:33.591Z,3.70
2018-05-15T21:49:38.062Z,5.67
2018-05-15T21:51:42.502Z,4.07
2018-05-15T21:53:47.694Z,3.77
2018-05-15T21:55:52.338Z,4.30
2018-05-15T21:57:56.782Z,4.43
2018-05-15T22:00:01.975Z,4.40
2018-05-15T22:02:06.901Z,3.53
2018-05-15T22:04:11.748Z,4.90
2018-05-15T22:06:16.171Z,4.40
2018-05-15T22:08:21.367Z,4.40
2018-05-15T22:10:26.087Z,3.90
2018-05-15T22:12:41.563Z,4.60
2018-05-15T22:15:03.059Z,4.00
2018-05-15T22:17:24.701Z,4.30
2018-05-15T22:19:46.118Z,4.53
2018-05-15T22:22:08.126Z,4.50
2018-05-15T22:24:23.107Z,5.83
2018-05-15T22:26:27.219Z,4.40
2018-05-15T22:28:31.675Z,4.40
2018-05-15T22:30:36.299Z,4.00
2018-05-15T22:32:41.503Z,4.43
2018-05-15T22:34:46.223Z,4.47
2018-05-15T22:36:50.805Z,4.80
2018-05-15T22:38:55.251Z,4.70
2018-05-15T22:40:59.650Z,4.87
2018-05-15T22:43:04.186Z,4.57
2018-05-15T22:45:08.578Z,4.00
2018-05-15T22:47:13.282Z,4.77
2018-05-15T22:49:18.561Z,4.30
2018-05-15T22:51:22.955Z,5.80
2018-05-15T22:53:27.498Z,4.80
2018-05-15T22:55:31.878Z,4.67
2018-05-15T22:57:36.298Z,4.57
2018-05-15T22:59:40.850Z,4.90
2018-05-15T23:01:45.238Z,5.27
2018-05-15T23:03:49.665Z,5.00
2018-05-15T23:05:54.131Z,4.87
2018-05-15T23:07:58.554Z,5.30
2018-05-15T23:10:02.982Z,4.57
2018-05-15T23:12:08.182Z,4.70
2018-05-15T23:14:12.609Z,4.90
2018-05-15T23:16:17.196Z,5.93
2018-05-15T23:18:21.720Z,5.90
2018-05-15T23:20:26.137Z,5.00
2018-05-15T23:22:41.959Z,4.97
2018-05-15T23:24:46.414Z,5.90
2018-05-15T23:26:50.855Z,5.33
2018-05-15T23:28:55.377Z,4.70
2018-05-15T23:31:00.719Z,4.60
2018-05-15T23:33:05.168Z,5.23
2018-05-15T23:35:09.601Z,5.53
2018-05-15T23:37:14.882Z,5.87
2018-05-15T23:39:20.078Z,5.60
2018-05-15T23:41:25.326Z,5.80
2018-05-15T23:43:29.772Z,4.80
2018-05-15T23:45:34.290Z,5.67
2018-05-15T23:47:38.682Z,5.73
2018-05-15T23:49:43.121Z,5.73
2018-05-15T23:51:47.641Z,5.13
2018-05-15T23:53:52.038Z,5.63
2018-05-15T23:55:56.466Z,5.83
2018-05-15T23:58:00.910Z,5.23
